Time;durP1;ratioP1;P1;durP2;ratioP2;P2;SDS_P1;SDS_P2;PMS_P1;PMS_P2;Temp;Humidity;BMP_temperature;BMP_pressure;BME280_temperature;BME280_humidity;BME280_pressure;Samples;Min_cycle;Max_cycle;Signal;HPM_P1;HPM_P2
2021/09/08 00:01:45;;;;;;;14.43;8.15;;;12.70;55.00;;;;;;5137218;27;20031;-39
2021/09/08 00:04:11;;;;;;;13.35;7.72;;;12.70;55.00;;;;;;5137077;27;20031;-37
2021/09/08 00:06:36;;;;;;;14.23;7.70;;;12.60;54.90;;;;;;5136845;27;20031;-35
2021/09/08 00:09:02;;;;;;;15.75;7.38;;;12.60;54.90;;;;;;5137027;27;20027;-39
2021/09/08 00:11:28;;;;;;;13.45;7.68;;;12.60;54.90;;;;;;5136637;27;20034;-43
2021/09/08 00:13:54;;;;;;;13.38;6.93;;;12.60;55.00;;;;;;5137148;27;20319;-35
2021/09/08 00:16:19;;;;;;;13.30;7.03;;;12.60;54.90;;;;;;5118205;27;20027;-43
2021/09/08 00:18:45;;;;;;;12.25;6.43;;;12.60;54.90;;;;;;5136777;27;20019;-35
2021/09/08 00:21:11;;;;;;;11.07;6.53;;;12.60;54.80;;;;;;5136897;27;20019;-35
2021/09/08 00:23:36;;;;;;;13.75;6.32;;;12.60;54.80;;;;;;5137127;27;20041;-36
2021/09/08 00:26:02;;;;;;;16.65;6.35;;;12.60;54.80;;;;;;5136979;27;20027;-34
2021/09/08 00:28:27;;;;;;;12.55;6.80;;;12.60;54.70;;;;;;5136073;27;20337;-35
2021/09/08 00:30:53;;;;;;;11.90;6.32;;;12.60;54.70;;;;;;5136624;28;20027;-38
2021/09/08 00:33:19;;;;;;;13.07;5.80;;;12.60;54.70;;;;;;5137143;28;20391;-37
2021/09/08 00:35:44;;;;;;;9.65;5.72;;;12.60;54.60;;;;;;5136115;28;20347;-38
2021/09/08 00:38:11;;;;;;;12.90;6.63;;;12.60;54.60;;;;;;5136890;28;20110;-37
2021/09/08 00:40:38;;;;;;;15.00;6.20;;;12.60;54.60;;;;;;5136361;28;20355;-43
2021/09/08 00:43:03;;;;;;;16.00;5.90;;;12.60;54.60;;;;;;5137022;28;20035;-36
2021/09/08 00:45:29;;;;;;;10.55;6.00;;;12.60;54.50;;;;;;5136230;28;20463;-38
2021/09/08 00:47:55;;;;;;;8.57;5.47;;;12.60;54.50;;;;;;5137029;28;20110;-37
2021/09/08 00:50:20;;;;;;;9.77;6.13;;;12.60;54.40;;;;;;5136600;28;20035;-44
2021/09/08 00:52:48;;;;;;;11.95;6.03;;;12.60;54.40;;;;;;5136672;28;20180;-34
2021/09/08 00:55:14;;;;;;;12.43;6.45;;;12.60;54.40;;;;;;5136337;28;20047;-43
2021/09/08 00:57:40;;;;;;;11.57;6.28;;;12.60;54.40;;;;;;5136379;28;20026;-36
2021/09/08 01:00:07;;;;;;;12.75;6.65;;;12.60;54.40;;;;;;5136756;28;20037;-43
2021/09/08 01:02:32;;;;;;;11.88;6.20;;;12.60;54.50;;;;;;5136560;28;20080;-43
2021/09/08 01:04:58;;;;;;;13.82;6.95;;;12.60;54.50;;;;;;5136281;28;20348;-42
2021/09/08 01:07:24;;;;;;;13.70;6.97;;;12.60;54.50;;;;;;5136529;28;20019;-43
2021/09/08 01:09:50;;;;;;;14.05;6.47;;;12.60;54.60;;;;;;5136725;28;20514;-34
2021/09/08 01:12:16;;;;;;;14.88;6.40;;;12.60;54.60;;;;;;5136327;28;20193;-34
2021/09/08 01:14:43;;;;;;;11.43;6.55;;;12.50;54.60;;;;;;5136089;28;20113;-43
2021/09/08 01:17:09;;;;;;;14.90;6.53;;;12.50;54.60;;;;;;5136055;28;20031;-35
2021/09/08 01:19:35;;;;;;;22.73;7.72;;;12.50;54.70;;;;;;5136523;28;20057;-43
2021/09/08 01:22:02;;;;;;;15.40;7.00;;;12.50;54.70;;;;;;5136415;28;20323;-43
2021/09/08 01:24:27;;;;;;;12.73;6.47;;;12.50;54.70;;;;;;5136264;28;20036;-43
2021/09/08 01:26:55;;;;;;;12.85;7.00;;;12.40;54.80;;;;;;5136028;28;20051;-36
2021/09/08 01:29:22;;;;;;;15.60;6.85;;;12.40;54.80;;;;;;5136413;28;20035;-35
2021/09/08 01:31:55;;;;;;;10.90;6.72;;;12.40;54.90;;;;;;5135996;28;20023;-36
2021/09/08 01:34:22;;;;;;;14.48;6.60;;;12.40;54.90;;;;;;5136014;28;20055;-34
2021/09/08 01:36:47;;;;;;;11.82;6.38;;;12.40;54.90;;;;;;5136063;28;20299;-35
2021/09/08 01:39:17;;;;;;;12.05;6.65;;;12.30;55.00;;;;;;5136511;27;20027;-32
2021/09/08 01:41:43;;;;;;;10.27;6.90;;;12.30;55.00;;;;;;5139575;27;20041;-35
2021/09/08 01:44:09;;;;;;;14.05;6.43;;;12.30;55.00;;;;;;5140044;27;20433;-32
2021/09/08 01:46:34;;;;;;;14.52;7.15;;;12.30;55.10;;;;;;5139763;27;20035;-32
2021/09/08 01:49:00;;;;;;;12.27;7.28;;;12.20;55.20;;;;;;5139554;27;20038;-35
2021/09/08 01:51:26;;;;;;;12.60;6.55;;;12.20;55.30;;;;;;5139338;27;20038;-32
2021/09/08 01:53:51;;;;;;;11.57;6.63;;;12.20;55.40;;;;;;5139450;27;20231;-32
2021/09/08 01:56:17;;;;;;;12.85;7.05;;;12.20;55.40;;;;;;5139207;27;20091;-33
2021/09/08 01:58:43;;;;;;;11.90;6.80;;;12.10;55.50;;;;;;5139202;27;20034;-32
2021/09/08 02:01:10;;;;;;;14.60;6.82;;;12.10;55.50;;;;;;5139270;27;20080;-32
2021/09/08 02:03:35;;;;;;;9.68;6.75;;;12.10;55.60;;;;;;5139395;27;20110;-33
2021/09/08 02:06:17;;;;;;;12.57;6.80;;;12.00;55.70;;;;;;5139288;27;20106;-35
2021/09/08 02:08:42;;;;;;;13.20;6.63;;;12.10;55.80;;;;;;5139626;27;20034;-32
2021/09/08 02:11:08;;;;;;;11.75;6.35;;;12.00;55.90;;;;;;5139060;27;20384;-35
2021/09/08 02:13:33;;;;;;;11.38;6.78;;;12.00;55.90;;;;;;5139594;27;20110;-35
2021/09/08 02:15:59;;;;;;;13.73;6.47;;;11.90;55.90;;;;;;5138880;27;20078;-34
2021/09/08 02:18:24;;;;;;;13.70;6.85;;;11.90;56.00;;;;;;5139471;27;20310;-32
2021/09/08 02:20:50;;;;;;;12.55;6.53;;;11.90;56.10;;;;;;5120576;27;20027;-33
2021/09/08 02:23:16;;;;;;;16.10;6.55;;;11.90;56.20;;;;;;5139562;27;20118;-35
2021/09/08 02:25:41;;;;;;;13.82;7.15;;;11.80;56.30;;;;;;5138741;27;20379;-33
2021/09/08 02:28:07;;;;;;;13.45;7.40;;;11.80;56.50;;;;;;5139286;27;20051;-36
2021/09/08 02:30:32;;;;;;;13.60;7.07;;;11.80;56.60;;;;;;5138523;27;20032;-35
2021/09/08 02:32:58;;;;;;;14.18;7.05;;;11.80;56.60;;;;;;5139100;27;20032;-32
2021/09/08 02:35:24;;;;;;;11.98;6.45;;;11.80;56.70;;;;;;5138377;27;20019;-32
2021/09/08 02:37:49;;;;;;;12.77;6.97;;;11.80;56.70;;;;;;5138828;27;20318;-32
2021/09/08 02:40:15;;;;;;;13.43;7.40;;;11.70;56.70;;;;;;5138721;27;20023;-32
2021/09/08 02:42:41;;;;;;;16.90;7.75;;;11.70;56.70;;;;;;5138508;27;20035;-35
2021/09/08 02:45:07;;;;;;;13.57;8.13;;;11.70;56.80;;;;;;5138568;27;20031;-35
2021/09/08 02:47:32;;;;;;;18.50;8.10;;;11.70;56.90;;;;;;5138305;27;20112;-34
2021/09/08 02:49:58;;;;;;;18.65;8.25;;;11.70;57.00;;;;;;5138694;27;20426;-33
2021/09/08 02:52:23;;;;;;;13.32;7.65;;;11.70;57.10;;;;;;5137441;27;20027;-35
2021/09/08 02:54:49;;;;;;;14.13;7.22;;;11.60;57.10;;;;;;5138158;27;20047;-32
2021/09/08 02:57:15;;;;;;;15.23;7.00;;;11.60;57.30;;;;;;5119995;27;20023;-32
2021/09/08 02:59:40;;;;;;;16.45;7.97;;;11.60;57.30;;;;;;5138305;27;20415;-31
2021/09/08 03:02:06;;;;;;;15.00;7.65;;;11.60;57.40;;;;;;5138264;27;20027;-32
2021/09/08 03:04:31;;;;;;;14.20;8.20;;;11.50;57.50;;;;;;5138127;27;20027;-34
2021/09/08 03:06:58;;;;;;;16.08;7.38;;;11.50;57.50;;;;;;5138167;27;20080;-32
2021/09/08 03:09:24;;;;;;;14.25;7.75;;;11.50;57.70;;;;;;5138021;27;20351;-32
2021/09/08 03:11:50;;;;;;;13.10;7.55;;;11.40;57.70;;;;;;5137884;27;20073;-32
2021/09/08 03:14:15;;;;;;;19.15;8.23;;;11.40;57.80;;;;;;5138115;27;20115;-32
2021/09/08 03:16:41;;;;;;;12.43;6.93;;;11.40;57.90;;;;;;5137739;27;20023;-35
2021/09/08 03:19:07;;;;;;;11.48;6.95;;;11.40;58.00;;;;;;5137838;27;20114;-32
2021/09/08 03:21:32;;;;;;;11.32;7.60;;;11.40;58.10;;;;;;5137856;27;20052;-32
2021/09/08 03:23:58;;;;;;;14.52;7.38;;;11.30;58.20;;;;;;5137866;27;20035;-33
2021/09/08 03:26:23;;;;;;;16.80;7.75;;;11.30;58.20;;;;;;5137555;27;20034;-32
2021/09/08 03:28:49;;;;;;;14.63;7.85;;;11.30;58.30;;;;;;5137536;27;20023;-32
2021/09/08 03:31:15;;;;;;;15.38;7.13;;;11.30;58.40;;;;;;5137527;27;20076;-32
2021/09/08 03:33:40;;;;;;;13.82;6.82;;;11.30;58.40;;;;;;5137867;27;20027;-32
2021/09/08 03:36:06;;;;;;;14.50;7.57;;;11.20;58.40;;;;;;5137499;27;20023;-35
2021/09/08 03:38:32;;;;;;;14.75;7.57;;;11.30;58.60;;;;;;5119372;27;20019;-35
2021/09/08 03:40:57;;;;;;;14.07;7.68;;;11.20;58.50;;;;;;5137269;27;20027;-34
2021/09/08 03:43:23;;;;;;;11.82;7.40;;;11.20;58.60;;;;;;5137870;27;20081;-34
2021/09/08 03:45:48;;;;;;;12.05;7.28;;;11.20;59.20;;;;;;5137283;27;20035;-32
2021/09/08 03:48:14;;;;;;;13.13;7.10;;;11.20;58.70;;;;;;5137739;27;20031;-32
2021/09/08 03:50:40;;;;;;;13.43;7.20;;;11.20;58.80;;;;;;5137092;27;20083;-31
2021/09/08 03:53:05;;;;;;;14.95;7.18;;;11.20;58.80;;;;;;5137417;27;20399;-32
2021/09/08 03:55:31;;;;;;;12.02;7.43;;;11.20;58.80;;;;;;5136817;27;20106;-32
2021/09/08 03:57:57;;;;;;;16.80;7.20;;;11.20;58.80;;;;;;5137522;27;20284;-32
2021/09/08 04:00:22;;;;;;;11.63;6.90;;;11.20;58.80;;;;;;5137092;27;20028;-32
2021/09/08 04:02:48;;;;;;;14.15;7.50;;;11.20;58.80;;;;;;5136711;27;20031;-32
2021/09/08 04:05:14;;;;;;;11.82;6.72;;;11.20;58.80;;;;;;5136884;27;20031;-34
2021/09/08 04:07:40;;;;;;;16.40;7.40;;;11.20;58.90;;;;;;5136878;27;20122;-35
2021/09/08 04:10:06;;;;;;;10.57;6.90;;;11.20;58.90;;;;;;5137077;27;20047;-35
2021/09/08 04:12:32;;;;;;;13.15;7.10;;;11.30;59.00;;;;;;5136819;27;20046;-31
2021/09/08 04:14:58;;;;;;;16.20;8.38;;;11.30;59.00;;;;;;5136543;27;20032;-34
2021/09/08 04:17:23;;;;;;;21.50;10.25;;;11.30;58.90;;;;;;5136603;27;20107;-35
2021/09/08 04:19:49;;;;;;;18.58;9.30;;;11.30;58.90;;;;;;5136602;27;20064;-32
2021/09/08 04:22:15;;;;;;;20.25;13.10;;;11.40;58.90;;;;;;5136773;27;20324;-32
2021/09/08 04:24:40;;;;;;;15.38;8.45;;;11.40;58.90;;;;;;5136438;27;20039;-35
2021/09/08 04:27:06;;;;;;;11.52;7.32;;;11.50;59.00;;;;;;5136747;27;20037;-32
2021/09/08 04:29:32;;;;;;;18.35;8.65;;;11.50;58.90;;;;;;5136506;27;20087;-32
2021/09/08 04:31:57;;;;;;;14.90;8.48;;;11.50;58.90;;;;;;5134019;27;20342;-35
2021/09/08 04:34:23;;;;;;;16.38;10.40;;;11.60;58.90;;;;;;5123915;28;20027;-32
2021/09/08 04:36:48;;;;;;;18.88;9.63;;;11.60;59.00;;;;;;5131378;28;20020;-32
2021/09/08 04:39:14;;;;;;;17.27;10.60;;;11.60;59.00;;;;;;5122215;28;20380;-36
2021/09/08 04:41:40;;;;;;;14.52;8.85;;;11.70;59.00;;;;;;5115604;28;20480;-44
2021/09/08 04:44:05;;;;;;;19.27;10.15;;;11.70;58.90;;;;;;5115476;28;20484;-43
2021/09/08 04:46:31;;;;;;;18.27;11.13;;;11.80;59.00;;;;;;5115707;28;20028;-39
2021/09/08 04:48:58;;;;;;;20.05;10.50;;;11.80;59.10;;;;;;5097693;28;20440;-43
2021/09/08 04:51:24;;;;;;;21.95;9.90;;;11.90;59.10;;;;;;5115679;28;20028;-35
2021/09/08 04:53:50;;;;;;;15.18;8.40;;;12.00;59.20;;;;;;5115548;28;20134;-44
2021/09/08 04:56:16;;;;;;;17.25;8.77;;;12.00;59.10;;;;;;5115405;28;20080;-41
2021/09/08 04:58:41;;;;;;;20.17;8.70;;;12.10;59.20;;;;;;5115502;28;20198;-37
2021/09/08 05:01:07;;;;;;;15.13;7.72;;;12.10;59.20;;;;;;5115530;28;20300;-44
2021/09/08 05:03:33;;;;;;;20.40;8.45;;;12.20;59.10;;;;;;5116088;28;20035;-43
2021/09/08 05:05:59;;;;;;;14.55;8.20;;;12.30;59.10;;;;;;5115434;28;20035;-38
2021/09/08 05:08:25;;;;;;;12.55;7.50;;;12.40;59.10;;;;;;5115673;28;20031;-38
2021/09/08 05:10:51;;;;;;;16.50;8.40;;;12.50;58.90;;;;;;5115212;28;20027;-43
2021/09/08 05:13:16;;;;;;;13.45;8.18;;;12.60;58.90;;;;;;5115926;28;20034;-45
2021/09/08 05:15:42;;;;;;;19.35;8.90;;;12.60;58.70;;;;;;5117026;28;20061;-38
2021/09/08 05:18:08;;;;;;;15.93;8.95;;;12.70;58.80;;;;;;5119374;28;20102;-41
2021/09/08 05:20:33;;;;;;;15.52;8.38;;;12.80;58.70;;;;;;5119373;28;20055;-43
2021/09/08 05:22:59;;;;;;;14.45;7.32;;;12.90;58.70;;;;;;5119623;28;20031;-36
2021/09/08 05:25:24;;;;;;;12.90;7.35;;;13.00;58.70;;;;;;5119019;28;20074;-36
2021/09/08 05:27:50;;;;;;;14.43;7.35;;;13.10;58.70;;;;;;5119561;28;20062;-45
2021/09/08 05:30:16;;;;;;;22.05;8.05;;;13.20;58.50;;;;;;5119377;28;20027;-45
2021/09/08 05:32:41;;;;;;;13.77;7.10;;;13.30;58.50;;;;;;5118806;28;20403;-37
2021/09/08 05:35:12;;;;;;;21.20;7.57;;;13.40;58.30;;;;;;5118768;28;20028;-45
2021/09/08 05:37:38;;;;;;;15.68;6.95;;;13.50;58.20;;;;;;5118888;28;20099;-44
2021/09/08 05:40:04;;;;;;;13.77;6.30;;;13.60;57.80;;;;;;5118693;28;20034;-38
2021/09/08 05:42:30;;;;;;;12.27;6.05;;;13.70;57.30;;;;;;5118965;28;20059;-36
2021/09/08 05:44:56;;;;;;;10.32;6.22;;;13.80;56.90;;;;;;5118805;28;20063;-36
2021/09/08 05:47:21;;;;;;;13.00;6.80;;;13.90;56.50;;;;;;5118532;28;20034;-36
2021/09/08 05:49:47;;;;;;;14.52;5.95;;;14.10;56.40;;;;;;5118437;28;20028;-36
2021/09/08 05:52:13;;;;;;;18.05;6.75;;;14.20;56.10;;;;;;5118265;28;20419;-35
2021/09/08 05:54:38;;;;;;;11.82;5.78;;;14.30;55.70;;;;;;5118238;28;20052;-35
2021/09/08 05:57:05;;;;;;;18.15;6.10;;;14.40;55.30;;;;;;5118382;28;20284;-37
2021/09/08 05:59:30;;;;;;;9.40;5.25;;;14.50;55.00;;;;;;5118393;28;20032;-43
2021/09/08 06:01:56;;;;;;;14.80;7.75;;;14.70;54.60;;;;;;5100079;28;20323;-43
2021/09/08 06:04:22;;;;;;;13.38;6.35;;;14.80;54.50;;;;;;5118230;28;20423;-43
2021/09/08 06:06:47;;;;;;;10.65;5.03;;;14.90;54.10;;;;;;5118473;28;20042;-43
2021/09/08 06:09:13;;;;;;;11.30;5.82;;;15.00;53.90;;;;;;5118631;28;20456;-43
2021/09/08 06:11:39;;;;;;;13.35;6.28;;;15.10;53.50;;;;;;5118001;28;20119;-39
2021/09/08 06:14:04;;;;;;;11.57;6.03;;;15.20;53.30;;;;;;5118365;28;20468;-37
2021/09/08 06:16:30;;;;;;;13.30;6.20;;;15.30;53.00;;;;;;5117915;28;20024;-43
2021/09/08 06:18:55;;;;;;;10.13;5.75;;;15.40;53.00;;;;;;5118241;28;20031;-43
2021/09/08 06:21:21;;;;;;;12.30;5.53;;;15.60;52.60;;;;;;5118452;28;20016;-45
2021/09/08 06:23:48;;;;;;;14.23;5.63;;;15.70;52.40;;;;;;5117735;28;20406;-44
2021/09/08 06:26:13;;;;;;;13.80;6.05;;;15.80;52.10;;;;;;5117673;28;20445;-45
2021/09/08 06:28:39;;;;;;;33.70;6.68;;;15.90;51.60;;;;;;5117672;28;20016;-44
2021/09/08 06:31:05;;;;;;;13.55;5.75;;;16.00;51.10;;;;;;5117621;28;20020;-39
2021/09/08 06:33:30;;;;;;;11.20;5.75;;;16.10;50.80;;;;;;5117781;28;20032;-44
2021/09/08 06:35:56;;;;;;;9.85;4.80;;;16.20;50.40;;;;;;5117100;28;20032;-44
2021/09/08 06:38:21;;;;;;;11.85;5.53;;;16.30;50.40;;;;;;5118047;28;20295;-44
2021/09/08 06:40:47;;;;;;;11.05;5.57;;;16.40;50.00;;;;;;5117791;28;20102;-44
2021/09/08 06:43:13;;;;;;;15.57;6.35;;;16.50;49.70;;;;;;5118237;28;20114;-43
2021/09/08 06:45:38;;;;;;;9.23;5.28;;;16.60;49.70;;;;;;5117251;28;20081;-44
2021/09/08 06:48:04;;;;;;;11.05;5.10;;;16.70;49.10;;;;;;5118013;28;20114;-44
2021/09/08 06:50:30;;;;;;;7.40;4.70;;;16.80;48.70;;;;;;5117704;28;20272;-39
2021/09/08 06:52:55;;;;;;;7.60;4.30;;;16.90;48.40;;;;;;5117325;28;20035;-45
2021/09/08 06:55:21;;;;;;;13.13;4.32;;;17.00;48.40;;;;;;5117073;28;20088;-38
2021/09/08 06:57:47;;;;;;;8.93;4.53;;;17.00;47.90;;;;;;5117772;28;20024;-40
2021/09/08 07:00:13;;;;;;;9.50;4.60;;;17.10;47.80;;;;;;5117371;28;20036;-40
2021/09/08 07:02:39;;;;;;;8.35;3.95;;;17.20;47.30;;;;;;5116843;28;20028;-37
2021/09/08 07:05:05;;;;;;;10.15;3.55;;;17.30;47.00;;;;;;5117085;28;20039;-41
2021/09/08 07:07:30;;;;;;;7.45;3.95;;;17.40;46.60;;;;;;5117314;28;20028;-44
2021/09/08 07:09:56;;;;;;;5.72;3.80;;;17.50;46.50;;;;;;5098879;28;20028;-40
2021/09/08 07:12:22;;;;;;;7.85;4.43;;;17.60;46.60;;;;;;5117034;28;20051;-42
2021/09/08 07:14:47;;;;;;;6.60;4.05;;;17.70;46.40;;;;;;5116464;28;20039;-39
2021/09/08 07:17:13;;;;;;;7.95;5.20;;;17.80;46.30;;;;;;5116722;28;20024;-37
2021/09/08 07:19:39;;;;;;;9.20;4.05;;;17.90;45.80;;;;;;5116485;28;20035;-40
2021/09/08 07:22:04;;;;;;;14.40;4.63;;;18.00;45.50;;;;;;5116912;28;20039;-45
2021/09/08 07:24:30;;;;;;;13.45;4.07;;;18.10;45.50;;;;;;5116646;28;20031;-45
2021/09/08 07:26:57;;;;;;;9.30;4.35;;;18.20;45.20;;;;;;5116733;28;20028;-45
2021/09/08 07:29:23;;;;;;;11.13;4.82;;;18.30;45.10;;;;;;5116709;28;20331;-43
2021/09/08 07:31:50;;;;;;;7.75;4.00;;;18.40;44.70;;;;;;5116740;28;20031;-40
2021/09/08 07:34:15;;;;;;;6.53;4.07;;;18.60;44.30;;;;;;5116827;28;20336;-43
2021/09/08 07:36:41;;;;;;;6.85;4.22;;;18.60;44.00;;;;;;5116326;28;20024;-43
2021/09/08 07:39:07;;;;;;;10.88;5.13;;;18.70;43.60;;;;;;5116026;28;20043;-38
2021/09/08 07:41:33;;;;;;;10.30;4.18;;;18.80;43.90;;;;;;5116267;28;20111;-40
2021/09/08 07:43:58;;;;;;;7.82;4.25;;;18.80;43.30;;;;;;5098334;28;20066;-40
2021/09/08 07:46:24;;;;;;;20.15;10.65;;;18.90;43.00;;;;;;5116366;28;20031;-39
2021/09/08 07:48:50;;;;;;;17.60;9.68;;;19.00;42.90;;;;;;5116113;28;20051;-40
2021/09/08 07:51:16;;;;;;;9.63;5.75;;;19.00;42.90;;;;;;5116304;28;20469;-39
2021/09/08 07:53:42;;;;;;;8.05;4.07;;;19.10;43.10;;;;;;5116232;28;20047;-38
2021/09/08 07:56:08;;;;;;;8.25;4.00;;;19.20;42.90;;;;;;5118002;27;20054;-43
2021/09/08 07:58:34;;;;;;;8.48;3.42;;;19.20;42.20;;;;;;5122185;27;20055;-38
2021/09/08 08:00:59;;;;;;;5.82;3.58;;;19.30;41.70;;;;;;5133363;27;20057;-39
2021/09/08 08:03:25;;;;;;;7.85;4.18;;;19.40;41.90;;;;;;5137224;27;20039;-43
2021/09/08 08:05:51;;;;;;;5.88;3.20;;;19.40;42.10;;;;;;5136976;27;20027;-36
2021/09/08 08:08:17;;;;;;;6.60;3.35;;;19.50;41.70;;;;;;5137385;27;20031;-44
2021/09/08 08:10:42;;;;;;;4.57;2.50;;;19.60;41.70;;;;;;5136580;27;20419;-44
2021/09/08 08:13:08;;;;;;;5.20;2.63;;;19.70;40.60;;;;;;5136956;27;20042;-43
2021/09/08 08:15:34;;;;;;;7.10;3.65;;;19.70;40.30;;;;;;5136452;27;20027;-43
2021/09/08 08:18:00;;;;;;;7.32;4.15;;;19.80;40.80;;;;;;5137018;27;20092;-44
2021/09/08 08:20:25;;;;;;;6.82;3.13;;;19.90;41.00;;;;;;5136251;27;20030;-45
2021/09/08 08:22:51;;;;;;;6.15;3.75;;;19.90;40.40;;;;;;5136812;27;20031;-45
2021/09/08 08:25:20;;;;;;;5.18;2.90;;;20.00;40.10;;;;;;5118450;27;20035;-42
2021/09/08 08:27:47;;;;;;;5.53;3.08;;;20.10;39.40;;;;;;5136637;27;20449;-44
2021/09/08 08:30:15;;;;;;;7.43;3.13;;;20.10;39.60;;;;;;5136486;27;20035;-41
2021/09/08 08:32:40;;;;;;;5.22;3.42;;;20.20;39.20;;;;;;5136117;27;20034;-44
2021/09/08 08:35:07;;;;;;;5.05;3.33;;;20.20;39.30;;;;;;5136649;28;20023;-41
2021/09/08 08:37:33;;;;;;;10.57;3.40;;;20.30;39.00;;;;;;5136200;28;20023;-43
2021/09/08 08:39:58;;;;;;;7.25;3.83;;;20.30;39.10;;;;;;5136427;28;20027;-44
2021/09/08 08:42:27;;;;;;;11.90;3.78;;;20.40;39.10;;;;;;5136313;28;20374;-45
2021/09/08 08:44:53;;;;;;;8.52;3.40;;;20.40;39.30;;;;;;5136453;28;20322;-43
2021/09/08 08:47:20;;;;;;;6.22;3.00;;;20.50;38.40;;;;;;5136493;28;20400;-46
2021/09/08 08:49:47;;;;;;;7.05;3.78;;;20.50;37.80;;;;;;5137183;27;20322;-45
2021/09/08 08:52:14;;;;;;;5.07;3.67;;;20.60;38.70;;;;;;5140642;27;20405;-42
2021/09/08 08:54:40;;;;;;;7.38;4.07;;;20.60;38.60;;;;;;5140152;27;20047;-45
2021/09/08 08:57:09;;;;;;;7.10;3.05;;;20.70;38.00;;;;;;5140189;27;20068;-38
2021/09/08 08:59:36;;;;;;;7.97;3.80;;;20.70;37.80;;;;;;5140325;27;20024;-40
2021/09/08 09:02:23;;;;;;;4.35;3.00;;;20.80;37.90;;;;;;5140143;27;20034;-44
2021/09/08 09:04:52;;;;;;;5.13;3.17;;;20.80;37.90;;;;;;5140209;27;20027;-38
2021/09/08 09:07:28;;;;;;;7.25;3.42;;;20.80;37.70;;;;;;5140073;27;20038;-42
2021/09/08 09:10:02;;;;;;;12.98;3.65;;;20.90;38.80;;;;;;5140476;27;20023;-44
2021/09/08 09:12:33;;;;;;;7.40;3.45;;;20.90;38.40;;;;;;5121520;27;20031;-44
2021/09/08 09:15:02;;;;;;;7.43;3.28;;;21.00;38.10;;;;;;5139753;27;20402;-39
2021/09/08 09:17:32;;;;;;;7.72;3.38;;;21.00;38.20;;;;;;5140001;27;20291;-40
2021/09/08 09:20:02;;;;;;;10.00;3.67;;;21.10;38.10;;;;;;5139999;27;20316;-41
2021/09/08 09:22:45;;;;;;;10.68;3.97;;;21.10;38.10;;;;;;5139868;27;20027;-39
2021/09/08 09:25:17;;;;;;;5.82;2.95;;;21.10;38.60;;;;;;5140148;27;20030;-37
2021/09/08 09:27:49;;;;;;;5.50;3.22;;;21.20;37.70;;;;;;5139941;27;20168;-44
2021/09/08 09:30:19;;;;;;;5.50;3.13;;;21.20;37.70;;;;;;5138400;27;20031;-40
2021/09/08 09:32:46;;;;;;;7.25;3.40;;;21.20;38.10;;;;;;5100609;28;20411;-41
2021/09/08 09:35:15;;;;;;;6.85;3.28;;;21.20;37.90;;;;;;5119212;28;20024;-43
2021/09/08 09:37:44;;;;;;;6.38;3.63;;;21.30;37.50;;;;;;5123813;27;20076;-44
2021/09/08 09:40:10;;;;;;;6.38;3.30;;;21.30;37.60;;;;;;5138291;27;20058;-40
2021/09/08 09:42:38;;;;;;;5.97;2.90;;;21.40;37.60;;;;;;5123761;27;20302;-40
2021/09/08 09:45:06;;;;;;;5.60;3.30;;;21.40;37.50;;;;;;5119074;28;20043;-44
2021/09/08 09:47:44;;;;;;;9.65;3.03;;;21.40;37.10;;;;;;5118805;28;20031;-41
2021/09/08 09:50:19;;;;;;;5.47;3.00;;;21.50;36.80;;;;;;5100596;28;20056;-43
2021/09/08 09:52:49;;;;;;;11.38;4.00;;;21.60;36.80;;;;;;5134882;27;20033;-44
2021/09/08 09:55:15;;;;;;;;;;;21.60;37.00;;;;;;5138472;28;20031;-41
2021/09/08 09:57:45;;;;;;;9.05;3.35;;;21.70;37.50;;;;;;5133074;28;20011;-39
2021/09/08 10:00:13;;;;;;;4.53;3.05;;;21.70;37.70;;;;;;5116937;28;20023;-42
2021/09/08 10:02:39;;;;;;;10.30;3.10;;;21.80;37.90;;;;;;5116736;28;20039;-44
2021/09/08 10:05:06;;;;;;;6.93;3.28;;;21.80;37.80;;;;;;5117360;28;20059;-45
2021/09/08 10:07:34;;;;;;;7.63;3.28;;;21.90;37.50;;;;;;5117226;28;20020;-43
2021/09/08 10:10:07;;;;;;;8.35;3.85;;;21.90;37.50;;;;;;5117311;28;20039;-44
2021/09/08 10:12:39;;;;;;;6.93;3.42;;;22.00;37.30;;;;;;5117299;28;20023;-36
2021/09/08 10:15:07;;;;;;;7.07;3.83;;;22.00;37.30;;;;;;5117255;28;20024;-40
2021/09/08 10:17:39;;;;;;;6.97;2.92;;;22.10;37.30;;;;;;5117175;28;20047;-43
2021/09/08 10:20:07;;;;;;;7.68;3.97;;;22.20;36.80;;;;;;5121389;28;20031;-40
2021/09/08 10:22:38;;;;;;;10.55;3.33;;;22.30;36.80;;;;;;5129665;28;20312;-44
2021/09/08 10:25:13;;;;;;;12.88;3.70;;;22.30;36.40;;;;;;5127163;28;20031;-38
2021/09/08 10:27:39;;;;;;;7.25;3.63;;;22.50;36.40;;;;;;5126180;28;20408;-44
2021/09/08 10:30:06;;;;;;;9.25;3.72;;;22.50;36.20;;;;;;5123099;28;20032;-46
2021/09/08 10:32:33;;;;;;;8.73;3.80;;;22.60;36.00;;;;;;5116553;28;20419;-38
2021/09/08 10:34:59;;;;;;;12.52;7.80;;;22.70;36.00;;;;;;5116839;28;20028;-38
2021/09/08 10:37:25;;;;;;;6.05;4.10;;;22.70;36.60;;;;;;5116918;28;20403;-42
2021/09/08 10:39:54;;;;;;;5.30;3.20;;;22.80;36.00;;;;;;5117035;28;20032;-44
2021/09/08 10:42:46;;;;;;;5.90;3.38;;;22.90;36.00;;;;;;5116819;28;20487;-44
2021/09/08 10:45:27;;;;;;;8.10;3.47;;;23.00;36.10;;;;;;5116987;28;20039;-42
2021/09/08 10:47:55;;;;;;;7.50;3.70;;;23.10;35.90;;;;;;5117285;28;20540;-44
2021/09/08 10:50:42;;;;;;;5.45;3.70;;;23.10;36.10;;;;;;5116698;28;20036;-44
2021/09/08 10:53:27;;;;;;;12.23;3.80;;;23.20;35.40;;;;;;5077031;28;1124680;-39
2021/09/08 10:55:56;;;;;;;5.50;3.20;;;23.30;36.50;;;;;;5117170;27;20427;-43
2021/09/08 10:58:21;;;;;;;6.20;2.95;;;23.30;36.40;;;;;;5110651;28;20028;-41
2021/09/08 11:00:49;;;;;;;5.20;3.15;;;23.40;36.00;;;;;;5119696;27;20033;-43
2021/09/08 11:03:15;;;;;;;13.13;6.65;;;23.50;35.90;;;;;;5126920;27;20034;-42
2021/09/08 11:05:58;;;;;;;11.38;3.75;;;23.60;35.20;;;;;;5117222;28;20106;-41
2021/09/08 11:08:33;;;;;;;6.57;3.35;;;23.60;34.90;;;;;;5117642;28;20035;-39
2021/09/08 11:11:09;;;;;;;10.75;4.75;;;23.70;34.20;;;;;;5117079;28;20050;-39
2021/09/08 11:13:35;;;;;;;19.45;7.60;;;23.70;35.70;;;;;;5116617;28;20034;-44
2021/09/08 11:16:02;;;;;;;14.02;6.57;;;23.80;38.90;;;;;;5116718;28;20024;-44
2021/09/08 11:18:34;;;;;;;11.25;5.60;;;23.90;39.80;;;;;;5116654;28;20035;-44
2021/09/08 11:21:03;;;;;;;11.88;4.72;;;24.00;39.40;;;;;;5116830;28;20028;-47
2021/09/08 11:23:30;;;;;;;9.07;4.30;;;24.10;38.90;;;;;;5117185;28;20032;-40
2021/09/08 11:26:03;;;;;;;7.82;4.22;;;24.20;38.20;;;;;;5116731;28;20450;-45
2021/09/08 11:28:31;;;;;;;12.98;6.93;;;24.20;38.90;;;;;;5117383;28;20084;-44
2021/09/08 11:30:57;;;;;;;13.10;5.53;;;24.30;39.80;;;;;;5116990;28;20097;-44
2021/09/08 11:33:22;;;;;;;9.25;5.65;;;24.40;39.90;;;;;;5117321;28;20324;-44
2021/09/08 11:35:53;;;;;;;9.35;5.50;;;24.40;39.60;;;;;;5116374;28;20024;-33
2021/09/08 11:38:30;;;;;;;9.95;5.35;;;24.50;40.30;;;;;;5117139;28;20402;-36
2021/09/08 11:41:04;;;;;;;13.68;5.07;;;24.60;40.60;;;;;;5116489;28;20063;-33
2021/09/08 11:43:51;;;;;;;10.25;5.55;;;24.60;40.20;;;;;;5117039;28;20418;-34
2021/09/08 11:46:22;;;;;;;10.57;4.65;;;24.80;40.00;;;;;;5116548;28;20042;-36
2021/09/08 11:49:06;;;;;;;7.22;3.90;;;24.80;39.80;;;;;;5116979;28;20035;-34
2021/09/08 11:51:40;;;;;;;8.70;3.70;;;25.00;38.50;;;;;;5116159;28;20076;-37
2021/09/08 11:54:08;;;;;;;17.67;6.13;;;25.00;37.90;;;;;;5116126;28;20135;-33
2021/09/08 11:56:38;;;;;;;6.20;3.90;;;25.20;37.90;;;;;;5116155;28;20467;-36
2021/09/08 11:59:04;;;;;;;16.60;4.55;;;25.20;37.50;;;;;;5116385;28;20028;-37
2021/09/08 12:01:41;;;;;;;8.82;3.97;;;25.40;37.40;;;;;;5116319;28;20031;-34
2021/09/08 12:04:09;;;;;;;7.15;3.53;;;25.50;36.80;;;;;;5116320;28;20027;-36
2021/09/08 12:06:53;;;;;;;6.85;4.07;;;25.70;36.50;;;;;;5115907;28;20026;-34
2021/09/08 12:09:32;;;;;;;9.32;3.90;;;25.90;37.20;;;;;;5116386;28;20023;-33
2021/09/08 12:12:03;;;;;;;7.28;3.92;;;26.00;37.60;;;;;;5115984;28;20114;-37
2021/09/08 12:14:32;;;;;;;6.82;4.30;;;26.10;38.40;;;;;;5115877;28;20035;-37
2021/09/08 12:17:00;;;;;;;5.60;3.55;;;26.30;37.20;;;;;;5115889;28;20411;-33
2021/09/08 12:19:45;;;;;;;4.20;3.05;;;26.40;36.80;;;;;;5116065;28;20024;-33
2021/09/08 12:22:39;;;;;;;5.20;3.13;;;26.60;36.50;;;;;;5116119;28;20038;-36
2021/09/08 12:25:15;;;;;;;3.92;3.00;;;26.70;36.10;;;;;;5115999;28;20035;-34
2021/09/08 12:27:46;;;;;;;5.55;3.58;;;26.90;36.00;;;;;;5115779;28;20035;-36
2021/09/08 12:30:14;;;;;;;7.10;4.70;;;27.00;35.70;;;;;;5116085;28;20032;-35
2021/09/08 12:33:10;;;;;;;7.13;4.30;;;27.20;35.80;;;;;;5115530;28;20036;-36
2021/09/08 12:35:51;;;;;;;6.20;3.60;;;27.30;36.00;;;;;;5114254;28;20300;-32
2021/09/08 12:38:26;;;;;;;7.07;3.97;;;27.50;34.80;;;;;;5116162;28;20129;-32
2021/09/08 12:41:18;;;;;;;7.68;4.15;;;27.60;34.20;;;;;;5115792;28;20028;-33
2021/09/08 12:43:45;;;;;;;6.72;3.55;;;27.70;34.10;;;;;;5106669;28;20040;-37